createdAt,value
2023-11-21T00:01:28.753Z,58.16
2023-11-21T00:03:57.799Z,57.59
2023-11-21T00:06:26.594Z,58.17
2023-11-21T00:08:53.076Z,58.99
2023-11-21T00:11:19.786Z,59.06
2023-11-21T00:13:46.842Z,58.83
2023-11-21T00:16:19.952Z,58.44
2023-11-21T00:18:47.702Z,58.81
2023-11-21T00:21:14.653Z,58.60
2023-11-21T00:23:41.694Z,58.81
2023-11-21T00:26:10.946Z,58.69
2023-11-21T00:28:37.536Z,58.73
2023-11-21T00:31:08.900Z,58.67
2023-11-21T00:33:37.760Z,58.45
2023-11-21T00:36:10.657Z,58.11
2023-11-21T00:38:37.655Z,58.38
2023-11-21T00:41:04.464Z,58.66
2023-11-21T00:43:34.331Z,58.37
2023-11-21T00:46:03.176Z,58.54
2023-11-21T00:48:29.657Z,58.34
2023-11-21T00:50:57.405Z,57.50
2023-11-21T00:53:23.795Z,55.53
2023-11-21T00:55:50.466Z,56.31
2023-11-21T00:58:17.077Z,57.80
2023-11-21T01:00:43.705Z,58.22
2023-11-21T01:03:10.357Z,58.54
2023-11-21T01:05:37.019Z,58.95
2023-11-21T01:08:03.541Z,58.88
2023-11-21T01:10:32.383Z,58.91
2023-11-21T01:13:01.225Z,58.91
2023-11-21T01:15:30.051Z,58.79
2023-11-21T01:17:58.797Z,59.03
2023-11-21T01:20:25.422Z,56.62
2023-11-21T01:22:56.573Z,56.67
2023-11-21T01:25:23.203Z,56.70
2023-11-21T01:27:50.076Z,56.27
2023-11-21T01:30:18.865Z,57.87
2023-11-21T01:32:45.502Z,58.93
2023-11-21T01:35:14.322Z,58.60
2023-11-21T01:37:40.881Z,59.48
2023-11-21T01:40:11.178Z,58.93
2023-11-21T01:42:40.163Z,57.39
2023-11-21T01:45:07.424Z,57.33
2023-11-21T01:47:35.300Z,57.08
2023-11-21T01:50:02.196Z,56.07
2023-11-21T01:52:28.867Z,56.91
2023-11-21T01:54:55.687Z,57.17
2023-11-21T01:57:25.626Z,55.98
2023-11-21T01:59:56.373Z,57.46
2023-11-21T02:02:22.904Z,57.68
2023-11-21T02:04:51.978Z,56.88
2023-11-21T02:07:20.601Z,57.50
2023-11-21T02:09:47.163Z,56.57
2023-11-21T02:12:13.905Z,55.47
2023-11-21T02:14:40.406Z,55.96
2023-11-21T02:17:07.577Z,57.80
2023-11-21T02:19:35.533Z,58.37
2023-11-21T02:22:04.537Z,57.85
2023-11-21T02:24:31.226Z,57.35
2023-11-21T02:26:57.951Z,58.21
2023-11-21T02:29:28.809Z,57.19
2023-11-21T02:31:56.452Z,56.81
2023-11-21T02:34:23.700Z,56.62
2023-11-21T02:36:53.019Z,57.10
2023-11-21T02:39:23.039Z,57.56
2023-11-21T02:41:50.098Z,57.42
2023-11-21T02:44:18.975Z,57.36
2023-11-21T02:46:48.285Z,56.75
2023-11-21T02:49:17.149Z,54.96
2023-11-21T02:51:44.597Z,55.49
2023-11-21T02:54:12.516Z,54.88
2023-11-21T02:56:40.981Z,56.66
2023-11-21T02:59:07.561Z,57.47
2023-11-21T03:01:34.208Z,56.93
2023-11-21T03:04:00.977Z,58.42
2023-11-21T03:06:27.557Z,57.21
2023-11-21T03:08:56.445Z,57.24
2023-11-21T03:11:22.922Z,57.54
2023-11-21T03:13:49.474Z,58.56
2023-11-21T03:16:20.462Z,58.52
2023-11-21T03:18:47.137Z,57.87
2023-11-21T03:21:14.337Z,59.00
2023-11-21T03:23:40.984Z,58.61
2023-11-21T03:26:09.595Z,58.49
2023-11-21T03:28:36.167Z,58.27
2023-11-21T03:31:02.738Z,56.66
2023-11-21T03:33:29.220Z,57.61
2023-11-21T03:35:55.754Z,58.17
2023-11-21T03:38:22.339Z,57.88
2023-11-21T03:40:49.014Z,57.43
2023-11-21T03:43:15.845Z,57.61
2023-11-21T03:45:42.400Z,56.97
2023-11-21T03:48:13.713Z,57.58
2023-11-21T03:50:40.295Z,56.53
2023-11-21T03:53:06.844Z,55.92
2023-11-21T03:55:33.544Z,56.13
2023-11-21T03:58:02.760Z,56.17
2023-11-21T04:00:29.284Z,56.59
2023-11-21T04:02:58.146Z,56.05
2023-11-21T04:05:24.965Z,54.98
2023-11-21T04:07:52.263Z,56.25
2023-11-21T04:10:19.269Z,56.99
2023-11-21T04:12:46.333Z,56.66
2023-11-21T04:15:16.309Z,57.49
2023-11-21T04:17:46.574Z,57.24
2023-11-21T04:20:15.840Z,57.34
2023-11-21T04:22:47.318Z,58.85
2023-11-21T04:25:17.335Z,58.49
2023-11-21T04:27:45.127Z,58.87
2023-11-21T04:30:12.826Z,58.59
2023-11-21T04:32:40.363Z,57.77
2023-11-21T04:35:07.334Z,57.36
2023-11-21T04:37:33.873Z,57.74
2023-11-21T04:40:00.585Z,57.86
2023-11-21T04:42:27.106Z,58.71
2023-11-21T04:44:53.726Z,58.59
2023-11-21T04:47:20.958Z,57.95
2023-11-21T04:49:53.163Z,58.00
2023-11-21T04:52:22.044Z,57.49
2023-11-21T04:54:49.294Z,57.46
2023-11-21T04:57:19.162Z,57.46
2023-11-21T04:59:45.786Z,58.88
2023-11-21T05:02:27.726Z,58.99
2023-11-21T05:05:02.266Z,56.28
2023-11-21T05:07:32.692Z,57.72
2023-11-21T05:10:04.686Z,57.56
2023-11-21T05:12:36.209Z,55.00
2023-11-21T05:15:04.333Z,56.48
2023-11-21T05:17:30.936Z,57.26
2023-11-21T05:19:57.454Z,57.74
2023-11-21T05:22:23.917Z,57.56
2023-11-21T05:24:50.898Z,57.64
2023-11-21T05:27:17.405Z,58.08
2023-11-21T05:29:43.922Z,58.06
2023-11-21T05:32:10.521Z,58.65
2023-11-21T05:34:39.543Z,58.91
2023-11-21T05:37:06.622Z,56.64
2023-11-21T05:39:33.100Z,58.78
2023-11-21T05:42:01.081Z,58.35
2023-11-21T05:44:27.599Z,58.58
2023-11-21T05:46:54.295Z,58.47
2023-11-21T05:49:23.673Z,58.59
2023-11-21T05:51:55.005Z,59.12
2023-11-21T05:54:24.821Z,58.69
2023-11-21T05:56:51.340Z,58.17
2023-11-21T05:59:18.526Z,56.62
2023-11-21T06:01:46.968Z,57.25
2023-11-21T06:04:14.124Z,56.66
2023-11-21T06:06:40.663Z,57.38
2023-11-21T06:09:09.817Z,57.85
2023-11-21T06:11:38.759Z,57.11
2023-11-21T06:14:06.442Z,58.25
2023-11-21T06:16:32.970Z,58.98
2023-11-21T06:19:02.343Z,59.24
2023-11-21T06:21:28.796Z,57.86
2023-11-21T06:23:58.091Z,58.84
2023-11-21T06:26:26.972Z,59.11
2023-11-21T06:28:54.038Z,58.81
2023-11-21T06:31:23.975Z,58.74
2023-11-21T06:33:53.189Z,58.54
2023-11-21T06:36:22.166Z,58.11
2023-11-21T06:38:48.738Z,57.56
2023-11-21T06:41:16.356Z,58.84
2023-11-21T06:43:47.459Z,59.19
2023-11-21T06:46:20.177Z,59.62
2023-11-21T06:48:47.181Z,58.83
2023-11-21T06:51:14.286Z,58.02
2023-11-21T06:53:43.248Z,58.35
2023-11-21T06:56:19.462Z,58.58
2023-11-21T06:58:49.050Z,58.79
2023-11-21T07:01:16.244Z,58.59
2023-11-21T07:03:45.315Z,58.42
2023-11-21T07:06:15.143Z,58.80
2023-11-21T07:08:43.686Z,57.87
2023-11-21T07:11:10.296Z,58.75
2023-11-21T07:13:39.074Z,59.18
2023-11-21T07:16:06.040Z,58.71
2023-11-21T07:18:32.604Z,58.04
2023-11-21T07:20:59.875Z,58.40
2023-11-21T07:23:26.931Z,58.36
2023-11-21T07:25:53.644Z,58.37
2023-11-21T07:28:20.238Z,58.34
2023-11-21T07:30:49.344Z,59.02
2023-11-21T07:33:15.951Z,58.30
2023-11-21T07:35:42.837Z,58.58
2023-11-21T07:38:09.350Z,58.52
2023-11-21T07:40:35.918Z,58.34
2023-11-21T07:43:04.699Z,58.64
2023-11-21T07:45:34.031Z,58.89
2023-11-21T07:48:04.399Z,58.78
2023-11-21T07:50:33.471Z,58.92
2023-11-21T07:53:00.599Z,58.67
2023-11-21T07:55:27.768Z,59.04
2023-11-21T07:57:54.542Z,58.05
2023-11-21T08:00:23.297Z,58.08
2023-11-21T08:02:49.937Z,58.37
2023-11-21T08:05:24.797Z,55.91
2023-11-21T08:07:54.962Z,54.30
2023-11-21T08:10:22.851Z,55.45
2023-11-21T08:12:51.603Z,54.74
2023-11-21T08:15:18.073Z,55.61
2023-11-21T08:17:44.637Z,57.02
2023-11-21T08:20:12.235Z,55.98
2023-11-21T08:22:41.960Z,55.36
2023-11-21T08:25:08.987Z,56.22
2023-11-21T08:27:38.353Z,57.23
2023-11-21T08:30:05.388Z,56.26
2023-11-21T08:32:34.342Z,56.58
2023-11-21T08:35:02.602Z,56.50
2023-11-21T08:37:31.204Z,56.77
2023-11-21T08:40:00.798Z,57.62
2023-11-21T08:42:31.230Z,57.00
2023-11-21T08:44:58.920Z,56.70
2023-11-21T08:47:25.734Z,57.51
2023-11-21T08:49:55.295Z,57.83
2023-11-21T08:52:24.215Z,58.20
2023-11-21T08:54:57.012Z,57.68
2023-11-21T08:57:24.262Z,58.26
2023-11-21T08:59:56.364Z,57.26
2023-11-21T09:02:26.408Z,56.32
2023-11-21T09:04:53.933Z,56.49
2023-11-21T09:07:23.874Z,56.90
2023-11-21T09:09:50.597Z,57.36
2023-11-21T09:12:18.014Z,57.89
2023-11-21T09:14:45.487Z,57.86
2023-11-21T09:17:13.031Z,57.23
2023-11-21T09:19:40.024Z,58.36
2023-11-21T09:22:06.876Z,58.31
2023-11-21T09:24:34.154Z,58.58
2023-11-21T09:27:01.167Z,57.62
2023-11-21T09:29:28.494Z,58.18
2023-11-21T09:31:56.016Z,57.73
2023-11-21T09:34:23.397Z,58.05
2023-11-21T09:36:51.132Z,57.50
2023-11-21T09:39:19.166Z,57.62
2023-11-21T09:41:54.888Z,57.26
2023-11-21T09:44:43.486Z,58.42
2023-11-21T09:47:12.122Z,57.93
2023-11-21T09:49:39.645Z,57.88
2023-11-21T09:52:07.985Z,57.63
2023-11-21T09:54:35.520Z,57.44
2023-11-21T09:57:03.297Z,57.40
2023-11-21T09:59:32.011Z,57.87
2023-11-21T10:02:02.269Z,57.68
2023-11-21T10:04:29.861Z,57.09
2023-11-21T10:06:57.157Z,57.10
2023-11-21T10:09:24.628Z,57.48
2023-11-21T10:11:53.351Z,58.60
2023-11-21T10:14:21.876Z,58.84
2023-11-21T10:16:50.146Z,59.58
2023-11-21T10:19:17.541Z,59.05
2023-11-21T10:21:44.148Z,57.58
2023-11-21T10:24:10.640Z,57.44
2023-11-21T10:26:47.593Z,59.35
2023-11-21T10:29:20.258Z,60.11
2023-11-21T10:31:46.861Z,59.52
2023-11-21T10:34:17.159Z,58.59
2023-11-21T10:36:44.218Z,58.52
2023-11-21T10:39:11.385Z,59.02
2023-11-21T10:41:39.052Z,58.55
2023-11-21T10:44:08.281Z,59.67
2023-11-21T10:46:35.950Z,58.98
2023-11-21T10:49:03.177Z,59.22
2023-11-21T10:51:33.307Z,58.75
2023-11-21T10:54:01.341Z,59.57
2023-11-21T10:56:28.599Z,60.17
2023-11-21T10:58:55.594Z,58.65
2023-11-21T11:01:24.342Z,58.01
2023-11-21T11:03:51.650Z,57.23
2023-11-21T11:06:18.570Z,57.35
2023-11-21T11:08:45.532Z,57.68
2023-11-21T11:11:13.015Z,58.91
2023-11-21T11:13:40.395Z,59.46
2023-11-21T11:16:11.563Z,61.17
2023-11-21T11:18:38.908Z,57.85
2023-11-21T11:21:16.307Z,59.50
2023-11-21T11:24:09.032Z,58.57
2023-11-21T11:26:44.212Z,59.22
2023-11-21T11:29:29.160Z,57.55
2023-11-21T11:32:18.119Z,58.48
2023-11-21T11:34:55.298Z,58.81
2023-11-21T11:37:24.567Z,59.14
2023-11-21T11:39:52.292Z,59.13
2023-11-21T11:42:19.367Z,60.28
2023-11-21T11:44:53.328Z,60.55
2023-11-21T11:47:39.042Z,62.15
2023-11-21T11:50:14.934Z,59.41
2023-11-21T11:52:42.877Z,60.84
2023-11-21T11:55:11.173Z,60.84
2023-11-21T11:57:39.854Z,58.63
2023-11-21T12:00:13.432Z,58.65
2023-11-21T12:02:40.677Z,58.08
2023-11-21T12:05:12.880Z,59.57
2023-11-21T12:08:06.679Z,59.68
2023-11-21T12:10:36.035Z,60.67
2023-11-21T12:13:09.253Z,62.07
2023-11-21T12:15:37.166Z,57.87
2023-11-21T12:18:05.071Z,58.34
2023-11-21T12:20:32.454Z,58.41
2023-11-21T12:23:02.514Z,57.97
2023-11-21T12:25:32.467Z,57.40
2023-11-21T12:28:00.616Z,56.83
2023-11-21T12:30:36.799Z,57.86
2023-11-21T12:33:05.154Z,58.90
2023-11-21T12:35:35.389Z,60.21
2023-11-21T12:38:06.742Z,60.84
2023-11-21T12:40:33.927Z,61.94
2023-11-21T12:43:02.765Z,61.27
2023-11-21T12:45:30.315Z,60.43
2023-11-21T12:48:12.054Z,59.30
2023-11-21T12:50:39.735Z,59.51
2023-11-21T12:53:09.969Z,59.61
2023-11-21T12:55:40.576Z,58.19
2023-11-21T12:58:12.151Z,58.95
2023-11-21T13:00:50.417Z,58.08
2023-11-21T13:03:20.835Z,59.31
2023-11-21T13:05:53.290Z,58.21
2023-11-21T13:08:22.182Z,60.24
2023-11-21T13:10:56.377Z,58.74
2023-11-21T13:13:25.082Z,61.17
2023-11-21T13:15:57.479Z,58.55
2023-11-21T13:18:25.074Z,59.98
2023-11-21T13:20:51.893Z,56.81
2023-11-21T13:23:18.684Z,55.91
2023-11-21T13:25:50.894Z,54.91
2023-11-21T13:28:23.652Z,56.48
2023-11-21T13:30:53.479Z,54.67
2023-11-21T13:33:28.744Z,54.41
2023-11-21T13:35:57.408Z,54.26
2023-11-21T13:38:24.250Z,55.08
2023-11-21T13:40:55.116Z,58.48
2023-11-21T13:43:26.673Z,58.15
2023-11-21T13:46:04.503Z,56.92
2023-11-21T13:48:41.821Z,55.84
2023-11-21T13:51:18.447Z,56.15
2023-11-21T13:53:51.515Z,55.60
2023-11-21T13:56:23.401Z,56.93
2023-11-21T13:58:53.639Z,56.26
2023-11-21T14:01:53.731Z,56.23
2023-11-21T14:04:27.136Z,55.29
2023-11-21T14:06:56.049Z,55.25
2023-11-21T14:09:27.149Z,52.98
2023-11-21T14:11:57.033Z,54.18
2023-11-21T14:14:26.184Z,55.30
2023-11-21T14:16:53.306Z,53.77
2023-11-21T14:19:19.948Z,54.19
2023-11-21T14:21:47.623Z,52.92
2023-11-21T14:24:14.251Z,54.95
2023-11-21T14:26:42.641Z,54.25
2023-11-21T14:29:10.183Z,53.65
2023-11-21T14:31:37.263Z,54.79
2023-11-21T14:34:04.128Z,55.88
2023-11-21T14:36:30.728Z,57.94
2023-11-21T14:38:57.253Z,56.41
2023-11-21T14:41:26.833Z,57.62
2023-11-21T14:43:54.380Z,56.78
2023-11-21T14:46:21.063Z,56.72
2023-11-21T14:49:01.296Z,59.34
2023-11-21T14:51:31.716Z,58.76
2023-11-21T14:54:07.795Z,58.62
2023-11-21T14:56:36.003Z,58.11
2023-11-21T14:59:17.701Z,58.65
2023-11-21T15:01:56.122Z,59.52
2023-11-21T15:04:38.530Z,56.87
2023-11-21T15:07:05.622Z,59.61
2023-11-21T15:09:32.897Z,55.54
2023-11-21T15:12:10.971Z,56.71
2023-11-21T15:14:38.143Z,58.35
2023-11-21T15:17:05.254Z,56.54
2023-11-21T15:19:32.581Z,55.47
2023-11-21T15:22:01.892Z,58.22
2023-11-21T15:24:28.703Z,58.74
2023-11-21T15:26:55.282Z,57.53
2023-11-21T15:29:23.018Z,57.84
2023-11-21T15:31:50.008Z,56.72
2023-11-21T15:34:16.764Z,58.14
2023-11-21T15:36:43.337Z,57.04
2023-11-21T15:39:11.343Z,60.43
2023-11-21T15:41:43.450Z,60.17
2023-11-21T15:44:12.537Z,58.56
2023-11-21T15:46:41.914Z,59.22
2023-11-21T15:49:13.738Z,59.94
2023-11-21T15:51:45.575Z,63.75
2023-11-21T15:54:12.452Z,62.56
2023-11-21T15:56:39.628Z,63.54
2023-11-21T15:59:11.491Z,64.90
2023-11-21T16:01:43.737Z,64.43
2023-11-21T16:04:18.529Z,64.30
2023-11-21T16:06:46.949Z,62.77
2023-11-21T16:09:24.653Z,63.34
2023-11-21T16:11:59.151Z,62.76
2023-11-21T16:14:28.096Z,62.98
2023-11-21T16:16:55.443Z,61.56
2023-11-21T16:19:21.995Z,62.66
2023-11-21T16:21:49.123Z,61.24
2023-11-21T16:24:16.023Z,62.99
2023-11-21T16:26:49.221Z,61.76
2023-11-21T16:29:18.312Z,62.20
2023-11-21T16:31:46.600Z,62.49
2023-11-21T16:34:20.548Z,61.55
2023-11-21T16:36:47.626Z,63.37
2023-11-21T16:39:15.019Z,62.75
2023-11-21T16:41:43.081Z,61.24
2023-11-21T16:44:19.412Z,59.83
2023-11-21T16:46:57.403Z,62.39
2023-11-21T16:49:25.383Z,62.42
2023-11-21T16:51:52.691Z,62.58
2023-11-21T16:54:22.086Z,62.19
2023-11-21T16:56:48.709Z,62.17
2023-11-21T16:59:15.649Z,62.83
2023-11-21T17:01:42.557Z,62.47
2023-11-21T17:04:12.998Z,63.90
2023-11-21T17:06:43.508Z,62.66
2023-11-21T17:09:11.273Z,61.42
2023-11-21T17:11:38.546Z,62.01
2023-11-21T17:14:06.475Z,62.28
2023-11-21T17:16:33.293Z,62.71
2023-11-21T17:19:00.191Z,63.20
2023-11-21T17:21:32.745Z,62.90
2023-11-21T17:24:02.305Z,65.26
2023-11-21T17:26:28.964Z,64.98
2023-11-21T17:28:55.997Z,65.27
2023-11-21T17:31:23.555Z,63.51
2023-11-21T17:33:50.287Z,64.43
2023-11-21T17:36:16.936Z,63.95
2023-11-21T17:38:43.954Z,64.19
2023-11-21T17:41:12.790Z,62.87
2023-11-21T17:43:42.741Z,63.84
2023-11-21T17:46:12.726Z,61.79
2023-11-21T17:48:41.836Z,61.24
2023-11-21T17:51:11.576Z,62.46
2023-11-21T17:53:38.492Z,64.32
2023-11-21T17:56:05.276Z,66.20
2023-11-21T17:58:32.220Z,64.06
2023-11-21T18:00:58.886Z,63.59
2023-11-21T18:03:25.644Z,66.86
2023-11-21T18:05:53.658Z,66.69
2023-11-21T18:08:20.552Z,67.72
2023-11-21T18:10:48.374Z,64.45
2023-11-21T18:13:15.238Z,63.43
2023-11-21T18:15:41.807Z,65.41
2023-11-21T18:18:08.653Z,64.52
2023-11-21T18:20:35.418Z,66.14
2023-11-21T18:23:02.260Z,65.63
2023-11-21T18:25:30.234Z,62.90
2023-11-21T18:27:56.926Z,64.41
2023-11-21T18:30:23.601Z,62.57
2023-11-21T18:32:50.583Z,63.08
2023-11-21T18:35:17.553Z,63.74
2023-11-21T18:37:47.456Z,64.30
2023-11-21T18:40:14.405Z,64.08
2023-11-21T18:42:44.066Z,65.47
2023-11-21T18:45:13.381Z,64.42
2023-11-21T18:47:40.306Z,63.67
2023-11-21T18:50:08.366Z,63.11
2023-11-21T18:52:35.012Z,62.83
2023-11-21T18:55:03.547Z,62.65
2023-11-21T18:57:32.327Z,61.97
2023-11-21T18:59:59.168Z,59.70
2023-11-21T19:02:27.141Z,57.37
2023-11-21T19:04:54.025Z,56.52
2023-11-21T19:07:23.320Z,58.07
2023-11-21T19:09:50.475Z,59.77
2023-11-21T19:12:17.095Z,56.41
2023-11-21T19:14:45.928Z,56.77
2023-11-21T19:17:12.519Z,58.46
2023-11-21T19:19:39.369Z,59.47
2023-11-21T19:22:05.983Z,59.33
2023-11-21T19:24:32.931Z,59.05
2023-11-21T19:26:59.762Z,57.42
2023-11-21T19:29:26.361Z,59.04
2023-11-21T19:31:53.232Z,59.10
2023-11-21T19:34:20.293Z,59.59
2023-11-21T19:36:46.989Z,57.35
2023-11-21T19:39:16.522Z,59.06
2023-11-21T19:41:44.890Z,59.57
2023-11-21T19:44:11.616Z,57.86
2023-11-21T19:46:39.487Z,58.25
2023-11-21T19:49:09.511Z,59.21
2023-11-21T19:51:36.374Z,57.48
2023-11-21T19:54:06.259Z,56.78
2023-11-21T19:56:33.217Z,58.51
2023-11-21T19:58:59.847Z,58.55
2023-11-21T20:01:26.599Z,56.85
2023-11-21T20:03:53.337Z,59.11
2023-11-21T20:06:21.189Z,58.26
2023-11-21T20:08:52.504Z,59.48
2023-11-21T20:11:23.093Z,59.07
2023-11-21T20:13:50.938Z,59.80
2023-11-21T20:16:19.483Z,58.16
2023-11-21T20:18:47.341Z,57.34
2023-11-21T20:21:20.657Z,59.58
2023-11-21T20:23:47.716Z,59.17
2023-11-21T20:26:21.721Z,58.44
2023-11-21T20:28:48.265Z,56.34
2023-11-21T20:31:14.878Z,55.43
2023-11-21T20:33:41.454Z,55.12
2023-11-21T20:36:08.230Z,56.37
2023-11-21T20:38:34.807Z,55.96
2023-11-21T20:41:03.850Z,55.48
2023-11-21T20:43:31.037Z,57.19
2023-11-21T20:45:58.416Z,53.59
2023-11-21T20:48:27.701Z,54.33
2023-11-21T20:50:54.330Z,54.01
2023-11-21T22:00:13.969Z,51.63
2023-11-21T22:02:44.428Z,51.72
2023-11-21T22:05:14.599Z,51.70
2023-11-21T22:07:41.611Z,52.28
2023-11-21T22:10:11.400Z,51.99
2023-11-21T22:12:37.980Z,52.64
2023-11-21T22:15:05.873Z,51.66
2023-11-21T22:17:32.874Z,51.09
2023-11-21T22:20:02.268Z,52.07
2023-11-21T22:22:29.177Z,51.38
2023-11-21T22:24:55.792Z,51.56
2023-11-21T22:27:27.038Z,52.15
2023-11-21T22:29:53.783Z,52.47
2023-11-21T22:32:20.449Z,50.83
2023-11-21T22:34:51.978Z,51.27
2023-11-21T22:37:18.566Z,50.92
2023-11-21T22:39:45.030Z,52.34
2023-11-21T22:42:11.576Z,51.03
2023-11-21T22:44:38.508Z,51.15
2023-11-21T22:47:05.618Z,51.29
2023-11-21T22:49:32.393Z,51.14
2023-11-21T22:51:59.850Z,51.09
2023-11-21T22:54:27.880Z,50.27
2023-11-21T22:56:57.098Z,51.87
2023-11-21T22:59:24.480Z,51.07
2023-11-21T23:01:51.532Z,50.71
2023-11-21T23:04:19.659Z,50.76
2023-11-21T23:06:49.652Z,51.38
2023-11-21T23:09:17.523Z,50.42
2023-11-21T23:11:44.590Z,50.64
2023-11-21T23:14:14.211Z,51.98
2023-11-21T23:16:40.860Z,51.57
2023-11-21T23:19:15.925Z,51.70
2023-11-21T23:21:42.772Z,51.25
2023-11-21T23:24:12.025Z,53.07
2023-11-21T23:26:44.124Z,53.50
2023-11-21T23:29:13.505Z,53.96
2023-11-21T23:31:40.126Z,53.27
2023-11-21T23:34:10.561Z,53.72
2023-11-21T23:36:40.915Z,54.63
2023-11-21T23:39:12.914Z,54.44
2023-11-21T23:41:40.117Z,54.33
2023-11-21T23:55:28.464Z,55.21
2023-11-21T23:57:57.212Z,56.96
